This is the latest recevied weather packets stored in our database for station/object KC8ZBC. If no packets are shown the sender has not sent any weather packets the latest 1 day(s).
| Time | Temp. | Humidity | Pressure | Rain* | Wind** | Luminosity | Snow |
|---|---|---|---|---|---|---|---|
| 1778011055 | 12.22° C | 63% | 982.6 hPa | 0 mm | 0.89 m/s, 202° | 76 W/m² | - |
| 1778010753 | 12.78° C | 63% | 982.5 hPa | 0 mm | 0.45 m/s, 257° | 78 W/m² | - |
| 1778010450 | 12.22° C | 63% | 982.6 hPa | 0 mm | 0.45 m/s, 215° | 88 W/m² | - |
| 1778010146 | 12.22° C | 63% | 982.7 hPa | 0 mm | 0 m/s | 89 W/m² | - |
| 1778009842 | 12.22° C | 63% | 982.7 hPa | 0 mm | 0.89 m/s, 26° | 78 W/m² | - |
| 1778009540 | 12.22° C | 63% | 982.9 hPa | 0 mm | 1.34 m/s, 252° | 64 W/m² | - |
| 1778009238 | 12.22° C | 63% | 982.7 hPa | 0 mm | 0.45 m/s, 294° | 66 W/m² | - |
| 1778008935 | 12.78° C | 64% | 982.8 hPa | 0 mm | 1.34 m/s, 279° | 65 W/m² | - |
| 1778008633 | 12.78° C | 65% | 982.6 hPa | 0 mm | 0.45 m/s, 206° | 89 W/m² | - |
| 1778008332 | 12.22° C | 65% | 982.3 hPa | 0 mm | 0.89 m/s, 203° | 121 W/m² | - |
| 1778008028 | 12.22° C | 64% | 982.6 hPa | 0 mm | 0.89 m/s, 0° | 94 W/m² | - |
| 1778007727 | 12.22° C | 65% | 982.6 hPa | 0 mm | 0 m/s | 115 W/m² | - |
| 1778007424 | 12.22° C | 64% | 982.8 hPa | 0 mm | 0 m/s | 117 W/m² | - |
| 1778007120 | 12.22° C | 64% | 982.5 hPa | 0 mm | 0 m/s | 117 W/m² | - |
| 1778006817 | 12.78° C | 62% | 982.6 hPa | 0 mm | 1.34 m/s, 358° | 89 W/m² | - |
| 1778006514 | 12.78° C | 63% | 982.6 hPa | 0 mm | 0.89 m/s, 154° | 166 W/m² | - |
| 1778006211 | 12.78° C | 62% | 982.5 hPa | 0 mm | 1.34 m/s, 306° | 144 W/m² | - |
| 1778005908 | 12.78° C | 62% | 982.4 hPa | 0 mm | 0 m/s | 171 W/m² | - |
| 1778005604 | 12.22° C | 62% | 982.3 hPa | 0 mm | 1.34 m/s, 280° | 174 W/m² | - |
| 1778005302 | 12.22° C | 64% | 982.3 hPa | 0 mm | 0.89 m/s, 338° | 163 W/m² | - |
| 1778004998 | 12.22° C | 61% | 982.2 hPa | 0 mm | 1.34 m/s, 244° | 111 W/m² | - |
| 1778004696 | 12.78° C | 60% | 981.9 hPa | 0 mm | 1.79 m/s, 290° | 135 W/m² | - |
| 1778004391 | 12.78° C | 58% | 981.9 hPa | 0 mm | 1.79 m/s, 251° | 175 W/m² | - |
| 1778004089 | 13.33° C | 61% | 981.9 hPa | 0 mm | 0.89 m/s, 270° | 268 W/m² | - |
| 1778003785 | 12.78° C | 66% | 982.1 hPa | 0 mm | 0.89 m/s, 334° | 305 W/m² | - |
* Rain latest hour (hover to see other rain measurements)
** Current wind speed in m/s (hover to see current wind gust speed)